Time;durP1;ratioP1;P1;durP2;ratioP2;P2;SDS_P1;SDS_P2;PMS_P1;PMS_P2;Temp;Humidity;BMP_temperature;BMP_pressure;BME280_temperature;BME280_humidity;BME280_pressure;Samples;Min_cycle;Max_cycle;Signal;HPM_P1;HPM_P2
2023/07/31 00:00:41;;;;;;;4.78;4.03;;;;;;;19.46;91.45;99620.99;1774380;81;21143;-63
2023/07/31 00:03:11;;;;;;;6.42;4.40;;;;;;;19.44;91.58;99617.66;1783670;80;21146;-63
2023/07/31 00:05:40;;;;;;;7.55;4.33;;;;;;;19.42;91.63;99615.15;1788375;80;21175;-63
2023/07/31 00:08:09;;;;;;;5.80;4.20;;;;;;;19.38;91.72;99616.81;1788108;79;21103;-63
2023/07/31 00:10:39;;;;;;;5.53;3.95;;;;;;;19.37;91.79;99618.47;1788126;80;21095;-63
2023/07/31 00:13:08;;;;;;;7.12;4.28;;;;;;;19.33;91.91;99624.58;1788361;79;21624;-62
2023/07/31 00:15:37;;;;;;;4.53;3.72;;;;;;;19.33;92.10;99631.52;1770694;80;21566;-64
2023/07/31 00:18:06;;;;;;;6.35;4.30;;;;;;;19.32;92.12;99620.69;1788419;80;21111;-64
2023/07/31 00:20:35;;;;;;;5.28;4.03;;;;;;;19.31;92.15;99629.58;1788179;80;21130;-63
2023/07/31 00:23:05;;;;;;;5.42;4.03;;;;;;;19.29;92.19;99629.02;1788527;80;21107;-63
2023/07/31 00:25:33;;;;;;;6.05;4.00;;;;;;;19.29;92.36;99621.23;1788173;80;21570;-63
2023/07/31 00:28:02;;;;;;;5.45;3.90;;;;;;;19.28;92.36;99620.95;1788419;80;21616;-63
2023/07/31 00:30:32;;;;;;;6.05;3.20;;;;;;;19.23;92.28;99614.83;1788250;80;21087;-65
2023/07/31 00:33:02;;;;;;;5.80;3.58;;;;;;;19.23;92.49;99616.22;1788137;80;21137;-64
2023/07/31 00:35:32;;;;;;;5.47;3.40;;;;;;;19.23;92.46;99610.67;1788078;80;21155;-65
2023/07/31 00:38:00;;;;;;;5.85;3.58;;;;;;;19.25;92.50;99600.12;1788272;80;21127;-64
2023/07/31 00:40:29;;;;;;;4.72;3.40;;;;;;;19.27;92.39;99610.40;1788214;80;21155;-64
2023/07/31 00:43:00;;;;;;;5.05;3.70;;;;;;;19.23;92.12;99607.05;1788294;80;21115;-63
2023/07/31 00:45:31;;;;;;;5.95;3.50;;;;;;;19.16;92.17;99614.81;1788261;80;21079;-63
2023/07/31 00:48:00;;;;;;;5.72;3.65;;;;;;;19.11;92.52;99612.86;1788455;80;21099;-64
2023/07/31 00:50:28;;;;;;;5.55;3.70;;;;;;;19.12;92.84;99611.75;1788297;80;21234;-63
2023/07/31 00:53:00;;;;;;;5.15;3.65;;;;;;;19.09;92.79;99605.35;1788421;79;21095;-64
2023/07/31 00:55:38;;;;;;;7.12;3.70;;;;;;;19.04;92.98;99609.50;1788310;80;21134;-68
2023/07/31 00:58:07;;;;;;;5.75;3.47;;;;;;;19.02;93.30;99610.88;1787951;80;21574;-64
2023/07/31 01:00:36;;;;;;;5.12;3.30;;;;;;;19.02;93.59;99612.27;1788434;80;21107;-64
2023/07/31 01:03:06;;;;;;;5.08;3.50;;;;;;;19.04;93.66;99619.22;1781343;80;21100;-63
2023/07/31 01:05:53;;;;;;;4.40;3.22;;;;;;;19.09;93.65;99618.40;1774387;80;21093;-64
2023/07/31 01:08:59;;;;;;;3.92;3.20;;;;;;;19.14;93.65;99612.86;1774639;80;21131;-64
2023/07/31 01:11:35;;;;;;;4.90;3.08;;;;;;;19.21;93.50;99618.44;1769152;80;21637;-63
2023/07/31 01:14:04;;;;;;;4.30;3.17;;;;;;;19.23;93.09;99621.77;1774692;80;21131;-63
2023/07/31 01:16:33;;;;;;;5.55;3.47;;;;;;;19.24;92.80;99616.50;1774400;81;21650;-63
2023/07/31 01:19:03;;;;;;;6.35;3.45;;;;;;;19.21;92.58;99615.66;1774628;79;21562;-63
2023/07/31 01:21:43;;;;;;;5.15;3.27;;;;;;;19.23;92.55;99610.67;1774426;81;21573;-65
2023/07/31 01:24:33;;;;;;;5.10;3.40;;;;;;;19.23;92.46;99610.67;1774371;81;21956;-64
2023/07/31 01:27:14;;;;;;;8.30;3.80;;;;;;;19.26;92.35;99614.84;1774454;79;21108;-64
2023/07/31 01:30:18;;;;;;;6.25;3.45;;;;;;;19.25;92.21;99617.34;1774334;79;21573;-63
2023/07/31 01:32:48;;;;;;;5.22;3.65;;;;;;;19.24;92.25;99617.06;1774422;81;21643;-63
2023/07/31 01:35:18;;;;;;;5.72;3.40;;;;;;;19.24;92.18;99619.28;1774760;81;21112;-64
2023/07/31 01:37:48;;;;;;;5.03;3.33;;;;;;;19.22;92.20;99617.33;1774520;81;21155;-63
2023/07/31 01:40:17;;;;;;;3.80;3.20;;;;;;;19.22;92.39;99619.27;1763947;81;21100;-64
2023/07/31 01:42:46;;;;;;;5.15;3.17;;;;;;;19.19;92.33;99616.48;1774486;79;21088;-62
2023/07/31 01:45:17;;;;;;;5.40;3.20;;;;;;;19.18;92.52;99618.98;1774535;81;21115;-64
2023/07/31 01:47:46;;;;;;;5.30;3.47;;;;;;;19.15;92.37;99611.20;1774690;81;21535;-64
2023/07/31 01:50:16;;;;;;;5.60;3.15;;;;;;;19.12;92.52;99613.13;1774392;81;21567;-64
2023/07/31 01:52:45;;;;;;;5.25;3.33;;;;;;;19.10;92.71;99618.13;1774611;81;21111;-63
2023/07/31 01:55:14;;;;;;;4.33;3.37;;;;;;;19.11;92.96;99614.24;1774607;81;21108;-64
2023/07/31 01:57:44;;;;;;;5.70;3.72;;;;;;;19.10;93.01;99620.91;1774405;80;21112;-63
2023/07/31 02:00:14;;;;;;;3.90;3.50;;;;;;;19.07;93.10;99615.89;1774546;81;21087;-64
2023/07/31 02:02:43;;;;;;;5.67;3.42;;;;;;;19.09;93.39;99622.02;1777148;79;21076;-64
2023/07/31 02:05:12;;;;;;;5.80;3.47;;;;;;;19.09;93.36;99623.40;1788366;80;21111;-64
2023/07/31 02:07:40;;;;;;;6.30;3.50;;;;;;;19.11;93.44;99621.19;1788440;80;21143;-64
2023/07/31 02:10:10;;;;;;;4.70;3.52;;;;;;;19.10;93.42;99625.06;1788413;80;21155;-64
2023/07/31 02:12:39;;;;;;;5.03;3.47;;;;;;;19.07;93.57;99632.56;1788442;80;21095;-63
2023/07/31 02:15:10;;;;;;;5.15;3.65;;;;;;;19.04;93.76;99633.66;1788302;80;21098;-65
2023/07/31 02:17:38;;;;;;;4.62;3.47;;;;;;;19.04;94.00;99628.94;1788344;80;21237;-64
2023/07/31 02:20:09;;;;;;;4.65;3.72;;;;;;;19.03;93.97;99635.59;1788367;80;21136;-64
2023/07/31 02:22:38;;;;;;;5.40;3.30;;;;;;;18.99;93.96;99626.14;1788238;80;21246;-64
2023/07/31 02:25:08;;;;;;;5.60;3.50;;;;;;;18.94;93.96;99626.95;1796894;80;21130;-63
2023/07/31 02:27:37;;;;;;;6.97;3.95;;;;;;;18.89;94.11;99620.00;1788364;80;21115;-63
2023/07/31 02:30:07;;;;;;;4.70;3.77;;;;;;;18.89;94.54;99617.77;1788340;80;21126;-64
2023/07/31 02:32:36;;;;;;;3.95;3.55;;;;;;;18.91;94.88;99619.73;1788383;80;21600;-64
2023/07/31 02:35:06;;;;;;;6.15;4.42;;;;;;;18.96;95.24;99621.13;1788543;80;21139;-64
2023/07/31 02:37:36;;;;;;;6.45;4.05;;;;;;;19.00;95.57;99625.88;1788191;80;21150;-64
2023/07/31 02:40:06;;;;;;;6.78;4.53;;;;;;;19.05;95.63;99623.66;1788278;79;21103;-67
2023/07/31 02:42:35;;;;;;;5.08;4.08;;;;;;;19.10;95.64;99623.68;1788275;79;21083;-63
2023/07/31 02:45:06;;;;;;;5.15;4.10;;;;;;;19.13;95.74;99613.42;1788274;80;21158;-63
2023/07/31 02:47:34;;;;;;;6.45;4.20;;;;;;;19.17;95.87;99618.70;1788380;80;21087;-63
2023/07/31 02:50:05;;;;;;;9.08;4.08;;;;;;;19.22;95.96;99619.27;1788363;80;21107;-63
2023/07/31 02:52:34;;;;;;;7.10;4.42;;;;;;;19.23;96.07;99625.94;1770945;80;21079;-63
2023/07/31 02:55:04;;;;;;;5.45;4.55;;;;;;;19.24;96.27;99620.67;1788187;80;21143;-63
2023/07/31 02:57:32;;;;;;;5.35;4.60;;;;;;;19.28;96.46;99624.56;1788413;80;21107;-63
2023/07/31 03:00:05;;;;;;;6.65;5.15;;;;;;;19.32;96.45;99629.02;1788218;80;21158;-63
2023/07/31 03:02:33;;;;;;;6.75;4.72;;;;;;;19.33;96.50;99631.52;1788085;80;21155;-63
2023/07/31 03:05:03;;;;;;;8.33;5.55;;;;;;;19.35;96.62;99631.80;1788362;80;21204;-62
2023/07/31 03:07:33;;;;;;;6.00;4.80;;;;;;;19.39;96.71;99637.09;1788216;80;21213;-63
2023/07/31 03:10:04;;;;;;;5.85;4.78;;;;;;;19.40;96.62;99632.66;1788124;80;21131;-62
2023/07/31 03:12:33;;;;;;;6.78;4.87;;;;;;;19.42;96.66;99634.59;1788286;80;21151;-63
2023/07/31 03:15:03;;;;;;;7.30;5.58;;;;;;;19.46;96.83;99640.44;1788291;80;21123;-62
2023/07/31 03:17:32;;;;;;;6.17;5.50;;;;;;;19.49;96.75;99644.89;1788223;80;21162;-62
2023/07/31 03:20:01;;;;;;;8.88;5.60;;;;;;;19.50;96.47;99643.78;1788616;80;21143;-63
2023/07/31 03:22:30;;;;;;;7.33;5.80;;;;;;;19.49;96.58;99640.73;1788074;80;21322;-63
2023/07/31 03:25:00;;;;;;;8.98;6.83;;;;;;;19.49;96.65;99643.50;1788418;80;21234;-63
2023/07/31 03:27:29;;;;;;;9.60;7.22;;;;;;;19.49;96.88;99644.06;1788289;80;21143;-64
2023/07/31 03:29:58;;;;;;;9.50;6.87;;;;;;;19.46;97.04;99645.44;1788143;80;21154;-63
2023/07/31 03:32:27;;;;;;;11.88;7.75;;;;;;;19.41;97.23;99655.71;1788314;79;21115;-63
2023/07/31 03:34:58;;;;;;;9.73;7.92;;;;;;;19.36;97.67;99645.98;1788332;80;21126;-63
2023/07/31 03:37:26;;;;;;;11.95;8.50;;;;;;;19.31;98.27;99652.34;1788425;80;21095;-63
2023/07/31 03:39:56;;;;;;;16.65;9.23;;;;;;;19.33;98.74;99659.30;1788320;80;21203;-62
2023/07/31 03:42:25;;;;;;;11.43;8.68;;;;;;;19.37;99.10;99655.42;1788190;80;21138;-63
2023/07/31 03:44:55;;;;;;;13.70;8.33;;;;;;;19.40;99.37;99653.48;1788463;80;21111;-61
2023/07/31 03:47:25;;;;;;;12.13;8.20;;;;;;;19.40;99.41;99659.04;1788344;80;21581;-63
2023/07/31 03:49:54;;;;;;;11.00;8.45;;;;;;;19.41;99.55;99657.09;1788326;80;21134;-63
2023/07/31 03:52:23;;;;;;;12.25;8.55;;;;;;;19.44;99.69;99655.16;1788264;80;21154;-62
2023/07/31 03:54:51;;;;;;;13.80;9.78;;;;;;;19.44;99.60;99657.38;1788189;80;21142;-63
2023/07/31 03:57:20;;;;;;;17.10;9.93;;;;;;;19.42;99.75;99659.60;1788014;80;21258;-62
2023/07/31 03:59:50;;;;;;;19.10;10.40;;;;;;;19.43;99.83;99657.11;1788101;80;21670;-63
2023/07/31 04:02:19;;;;;;;16.90;9.95;;;;;;;19.44;99.99;99659.33;1788167;80;21163;-62
2023/07/31 04:04:48;;;;;;;13.55;10.23;;;;;;;19.45;100.00;99661.84;1788100;80;21602;-64
2023/07/31 04:07:18;;;;;;;16.05;9.83;;;;;;;19.49;100.00;99657.95;1788362;80;21126;-63
2023/07/31 04:09:48;;;;;;;14.33;9.83;;;;;;;19.47;100.00;99656.00;1788048;80;21329;-62
2023/07/31 04:12:19;;;;;;;14.75;10.30;;;;;;;19.49;100.00;99657.95;1788349;80;21103;-66
2023/07/31 04:14:50;;;;;;;14.18;9.60;;;;;;;19.49;100.00;99651.84;1788233;79;21362;-63
2023/07/31 04:17:19;;;;;;;14.47;9.78;;;;;;;19.49;100.00;99657.95;1788396;80;21142;-63
2023/07/31 04:19:48;;;;;;;12.75;9.05;;;;;;;19.48;100.00;99663.23;1788317;80;21578;-64
2023/07/31 04:22:18;;;;;;;14.90;9.43;;;;;;;19.47;100.00;99663.78;1788391;80;21138;-63
2023/07/31 04:24:47;;;;;;;13.55;9.48;;;;;;;19.49;100.00;99666.28;1788287;80;21146;-63
2023/07/31 04:27:17;;;;;;;15.53;9.25;;;;;;;19.50;100.00;99666.56;1788247;80;21095;-64
2023/07/31 04:29:48;;;;;;;11.68;9.28;;;;;;;19.51;100.00;99664.10;1788196;80;21107;-64
2023/07/31 04:32:19;;;;;;;12.82;9.53;;;;;;;19.54;100.00;99670.53;1788600;80;21134;-64
2023/07/31 04:34:47;;;;;;;11.22;8.85;;;;;;;19.54;99.72;99669.98;1788235;80;21605;-63
2023/07/31 04:37:16;;;;;;;12.00;8.80;;;;;;;19.53;99.56;99675.81;1788397;80;21119;-63
2023/07/31 04:39:45;;;;;;;13.15;8.48;;;;;;;19.50;99.40;99678.52;1788471;80;21126;-64
2023/07/31 04:42:14;;;;;;;12.13;8.85;;;;;;;19.51;99.54;99681.61;1788193;80;21636;-63
2023/07/31 04:44:43;;;;;;;15.85;10.18;;;;;;;19.55;99.61;99683.31;1788369;80;21122;-63
2023/07/31 04:47:11;;;;;;;12.20;8.88;;;;;;;19.58;99.36;99683.60;1788332;80;21154;-63
2023/07/31 04:49:40;;;;;;;11.68;8.88;;;;;;;19.61;99.13;99685.83;1788310;80;21150;-63
2023/07/31 04:52:09;;;;;;;13.98;9.28;;;;;;;19.67;98.91;99682.51;1788404;80;21154;-64
2023/07/31 04:54:37;;;;;;;12.13;9.20;;;;;;;19.70;98.56;99682.52;1788254;80;21123;-63
2023/07/31 04:57:07;;;;;;;13.05;8.83;;;;;;;19.72;98.40;99683.91;1788247;80;21126;-64
2023/07/31 04:59:35;;;;;;;11.50;9.10;;;;;;;19.77;98.18;99685.86;1788101;80;21135;-63
2023/07/31 05:02:05;;;;;;;11.70;8.13;;;;;;;19.78;97.78;99691.70;1788443;79;21166;-63
2023/07/31 05:04:34;;;;;;;13.08;9.45;;;;;;;19.79;97.58;99690.03;1788244;80;21139;-64
2023/07/31 05:07:04;;;;;;;13.88;8.58;;;;;;;19.84;97.43;99690.04;1788171;80;21166;-64
2023/07/31 05:09:34;;;;;;;13.62;8.25;;;;;;;19.86;97.09;99694.77;1788134;80;21115;-64
2023/07/31 05:12:02;;;;;;;12.68;8.53;;;;;;;19.86;96.63;99700.33;1788412;80;21135;-63
2023/07/31 05:14:32;;;;;;;16.00;11.20;;;;;;;19.88;96.57;99700.05;1788239;80;21648;-63
2023/07/31 05:17:01;;;;;;;13.20;8.38;;;;;;;19.91;96.31;99704.51;1788170;80;21143;-65
2023/07/31 05:19:30;;;;;;;12.28;8.08;;;;;;;19.94;96.18;99699.78;1788217;80;21103;-66
2023/07/31 05:22:01;;;;;;;11.68;8.38;;;;;;;19.99;95.93;99708.69;1796792;80;21107;-63
2023/07/31 05:24:30;;;;;;;9.38;7.33;;;;;;;20.06;95.79;99717.59;1788467;80;21136;-63
2023/07/31 05:27:01;;;;;;;12.00;7.35;;;;;;;20.12;95.32;99715.65;1788322;80;21087;-65
2023/07/31 05:29:30;;;;;;;10.08;7.95;;;;;;;20.16;94.89;99712.06;1788337;80;21170;-66
2023/07/31 05:31:59;;;;;;;9.95;7.87;;;;;;;20.21;94.71;99708.45;1788193;80;21123;-64
2023/07/31 05:34:29;;;;;;;10.03;8.00;;;;;;;20.26;94.61;99713.45;1788472;80;21143;-64
2023/07/31 05:36:59;;;;;;;11.18;7.25;;;;;;;20.37;94.30;99724.59;1788278;80;21139;-63
2023/07/31 05:39:29;;;;;;;11.45;7.60;;;;;;;20.43;93.84;99717.38;1788042;80;21091;-65
2023/07/31 05:41:58;;;;;;;18.37;7.40;;;;;;;20.50;93.44;99719.32;1788154;80;21711;-63
2023/07/31 05:44:27;;;;;;;10.38;6.87;;;;;;;20.59;92.97;99718.20;1788338;80;21115;-64
2023/07/31 05:46:57;;;;;;;6.90;5.67;;;;;;;20.64;92.14;99718.19;1788415;80;21154;-65
2023/07/31 05:49:26;;;;;;;5.92;5.33;;;;;;;20.68;91.63;99718.47;1788217;80;21130;-65
2023/07/31 05:51:55;;;;;;;7.67;5.55;;;;;;;20.72;90.99;99716.78;1788257;80;21178;-65
2023/07/31 05:54:24;;;;;;;6.30;4.90;;;;;;;20.76;90.55;99714.55;1788406;80;21535;-64
2023/07/31 05:56:53;;;;;;;5.70;5.10;;;;;;;20.85;90.10;99711.50;1788278;80;21647;-65
2023/07/31 05:59:23;;;;;;;7.12;5.47;;;;;;;20.92;89.25;99713.16;1788082;80;22092;-63
2023/07/31 06:01:53;;;;;;;12.60;5.92;;;;;;;20.96;88.42;99717.88;1788149;79;21134;-64
2023/07/31 06:04:25;;;;;;;6.80;5.62;;;;;;;20.97;87.72;99715.36;1788058;79;21809;-65
2023/07/31 06:06:55;;;;;;;7.00;5.62;;;;;;;21.01;87.43;99722.59;1788071;79;21174;-64
2023/07/31 06:09:24;;;;;;;10.65;6.00;;;;;;;21.02;87.00;99716.74;1788196;80;21594;-65
2023/07/31 06:11:54;;;;;;;7.03;5.28;;;;;;;21.02;86.67;99712.56;1788166;80;21111;-65
2023/07/31 06:14:23;;;;;;;6.50;5.50;;;;;;;21.03;86.19;99718.97;1788394;80;21112;-64
2023/07/31 06:16:51;;;;;;;11.53;7.83;;;;;;;21.04;86.12;99717.30;1788045;79;21111;-63
2023/07/31 06:19:20;;;;;;;12.07;7.25;;;;;;;21.08;85.94;99723.97;1788218;80;21155;-64
2023/07/31 06:21:50;;;;;;;7.05;5.92;;;;;;;21.11;85.81;99723.39;1788356;80;21158;-64
2023/07/31 06:24:20;;;;;;;7.08;6.22;;;;;;;21.13;85.53;99729.52;1771180;80;21131;-64
2023/07/31 06:26:50;;;;;;;8.23;6.53;;;;;;;21.13;85.46;99726.73;1788080;80;21135;-64
2023/07/31 06:29:19;;;;;;;7.17;5.87;;;;;;;21.16;85.23;99723.94;1788339;80;21119;-65
2023/07/31 06:31:48;;;;;;;12.30;6.80;;;;;;;21.17;85.09;99727.83;1788059;80;21087;-65
2023/07/31 06:34:18;;;;;;;8.23;6.22;;;;;;;21.18;85.26;99737.86;1788410;80;21107;-65
2023/07/31 06:36:47;;;;;;;7.42;6.17;;;;;;;21.23;85.55;99732.03;1788233;80;21083;-65
2023/07/31 06:39:16;;;;;;;10.25;7.85;;;;;;;21.25;85.53;99732.02;1788421;80;21107;-64
2023/07/31 06:41:45;;;;;;;10.25;6.60;;;;;;;21.31;85.29;99734.22;1788051;80;21127;-64
2023/07/31 06:44:14;;;;;;;7.28;6.28;;;;;;;21.32;85.01;99731.71;1788135;80;21226;-65
2023/07/31 06:46:43;;;;;;;8.45;6.83;;;;;;;21.33;85.00;99734.21;1788327;80;21134;-64
2023/07/31 06:49:14;;;;;;;9.20;6.75;;;;;;;21.37;85.29;99743.67;1788419;80;21115;-65
2023/07/31 06:51:46;;;;;;;8.48;6.72;;;;;;;21.39;85.82;99739.20;1788343;80;21154;-65
2023/07/31 06:54:14;;;;;;;9.25;6.75;;;;;;;21.44;85.90;99744.20;1788425;80;21103;-66
2023/07/31 06:56:43;;;;;;;10.00;6.55;;;;;;;21.47;85.49;99747.84;1788286;80;21107;-64
2023/07/31 06:59:14;;;;;;;7.97;6.37;;;;;;;21.49;85.55;99747.55;1788360;80;21095;-65
2023/07/31 07:01:42;;;;;;;8.25;6.35;;;;;;;21.50;85.56;99748.66;1788196;80;21136;-65
2023/07/31 07:04:11;;;;;;;7.22;6.37;;;;;;;21.53;85.44;99745.86;1788182;80;21534;-64
2023/07/31 07:06:41;;;;;;;9.93;6.50;;;;;;;21.57;85.59;99741.38;1788075;80;21103;-66
2023/07/31 07:09:11;;;;;;;7.70;5.87;;;;;;;21.59;85.35;99753.08;1788603;79;21103;-64
2023/07/31 07:11:40;;;;;;;8.85;6.90;;;;;;;21.61;85.50;99744.43;1788123;80;21134;-64
2023/07/31 07:14:10;;;;;;;11.95;8.50;;;;;;;21.64;85.57;99750.27;1788169;79;21638;-65
2023/07/31 07:16:40;;;;;;;10.03;6.97;;;;;;;21.67;85.54;99748.86;1788339;80;21588;-64
2023/07/31 07:19:10;;;;;;;7.60;6.60;;;;;;;21.70;85.42;99743.55;1788398;80;21578;-64
2023/07/31 07:21:39;;;;;;;8.58;6.95;;;;;;;21.75;85.06;99742.13;1771008;79;21111;-65
2023/07/31 07:24:07;;;;;;;10.53;7.72;;;;;;;21.77;84.58;99739.05;1788634;80;21142;-64
2023/07/31 07:26:36;;;;;;;9.90;7.53;;;;;;;21.79;84.47;99747.40;1788220;80;21139;-64
2023/07/31 07:29:07;;;;;;;13.70;7.92;;;;;;;21.77;83.83;99739.88;1788218;80;21530;-63
2023/07/31 07:31:37;;;;;;;9.53;8.20;;;;;;;21.76;83.34;99736.81;1788281;80;21143;-65
2023/07/31 07:34:08;;;;;;;13.88;7.55;;;;;;;21.77;83.11;99741.27;1788415;79;21158;-65
2023/07/31 07:36:37;;;;;;;9.55;7.75;;;;;;;21.82;82.76;99740.41;1788197;79;21080;-64
2023/07/31 07:39:06;;;;;;;9.10;8.05;;;;;;;21.83;82.22;99734.55;1788081;80;21134;-66
2023/07/31 07:41:35;;;;;;;11.35;8.80;;;;;;;21.87;82.26;99738.98;1788340;80;21103;-65
2023/07/31 07:44:04;;;;;;;12.85;9.40;;;;;;;21.92;81.95;99736.72;1788346;80;21138;-65
2023/07/31 07:46:33;;;;;;;14.45;8.68;;;;;;;21.98;81.68;99738.36;1788153;80;21079;-65
2023/07/31 07:49:02;;;;;;;11.10;8.88;;;;;;;22.04;81.31;99734.44;1788291;80;21103;-65
2023/07/31 07:51:32;;;;;;;11.73;8.60;;;;;;;22.13;80.90;99740.55;1788279;80;21170;-63
2023/07/31 07:54:01;;;;;;;12.30;9.30;;;;;;;22.22;80.56;99732.39;1778537;79;21595;-66
2023/07/31 07:56:32;;;;;;;18.42;9.28;;;;;;;22.28;79.77;99729.83;1756929;80;21113;-66
2023/07/31 07:59:02;;;;;;;14.40;9.48;;;;;;;22.34;79.62;99734.23;1758669;80;21064;-65
2023/07/31 08:01:30;;;;;;;11.93;8.75;;;;;;;22.42;79.06;99733.61;1764872;80;20996;-64
2023/07/31 08:03:59;;;;;;;14.03;10.90;;;;;;;22.46;78.28;99738.88;1788202;80;21079;-63
2023/07/31 08:06:29;;;;;;;12.68;10.32;;;;;;;22.48;77.77;99743.34;1750847;82;21034;-62
2023/07/31 08:09:05;;;;;;;14.95;9.55;;;;;;;22.48;77.53;99738.59;1732120;83;21104;-64
2023/07/31 08:11:32;;;;;;;16.12;9.60;;;;;;;22.48;77.58;99735.80;1695696;83;21037;-65
2023/07/31 08:14:02;;;;;;;12.58;9.83;;;;;;;22.48;77.63;99727.42;1733859;83;21140;-63
2023/07/31 08:16:31;;;;;;;13.25;9.73;;;;;;;22.48;77.37;99735.80;1733690;83;21051;-63
2023/07/31 08:19:00;;;;;;;13.68;10.32;;;;;;;22.54;77.22;99735.19;1733563;81;21439;-63
2023/07/31 08:21:29;;;;;;;12.33;10.60;;;;;;;22.58;76.68;99737.67;1733820;83;21548;-63
2023/07/31 08:23:58;;;;;;;14.47;10.18;;;;;;;22.62;76.51;99744.33;1733772;81;21048;-63
2023/07/31 08:26:29;;;;;;;14.70;10.05;;;;;;;22.68;76.66;99741.20;1733629;83;21074;-64
2023/07/31 08:28:57;;;;;;;11.83;9.73;;;;;;;22.75;76.78;99742.25;1708693;84;21087;-64
2023/07/31 08:31:26;;;;;;;13.83;10.03;;;;;;;22.82;76.58;99741.97;1721683;82;21035;-63
2023/07/31 08:33:56;;;;;;;14.83;11.00;;;;;;;22.88;76.19;99744.41;1724626;82;21509;-63
2023/07/31 08:36:25;;;;;;;15.93;11.08;;;;;;;22.95;75.03;99744.06;1710532;84;21084;-65
2023/07/31 08:38:56;;;;;;;15.88;11.20;;;;;;;22.97;74.55;99739.84;1722308;83;21095;-63
2023/07/31 08:41:25;;;;;;;15.43;10.95;;;;;;;23.01;74.46;99744.28;1730444;83;21059;-63
2023/07/31 08:43:54;;;;;;;16.10;10.58;;;;;;;23.05;74.17;99744.79;1730634;83;21042;-64
2023/07/31 08:46:22;;;;;;;13.65;10.20;;;;;;;23.09;73.90;99750.05;1727767;81;21035;-65
2023/07/31 08:48:52;;;;;;;17.05;10.72;;;;;;;23.17;74.02;99747.73;1710373;83;21514;-66
2023/07/31 08:51:23;;;;;;;15.45;10.85;;;;;;;23.34;73.87;99745.30;1710530;84;21081;-64
2023/07/31 08:53:53;;;;;;;17.48;10.68;;;;;;;23.60;73.52;99741.11;1710769;84;21491;-64
2023/07/31 08:56:22;;;;;;;15.03;11.00;;;;;;;23.88;71.64;99744.09;1710560;84;21055;-65
2023/07/31 08:58:52;;;;;;;13.40;10.10;;;;;;;23.98;69.98;99744.77;1710346;84;21533;-64
2023/07/31 09:01:20;;;;;;;13.55;10.80;;;;;;;24.02;70.08;99752.82;1716480;83;21050;-65
2023/07/31 09:03:49;;;;;;;17.37;11.73;;;;;;;24.09;69.72;99746.05;1724758;83;21038;-64
2023/07/31 09:06:19;;;;;;;14.50;11.88;;;;;;;24.11;69.42;99754.97;1718948;83;21108;-64
2023/07/31 09:08:48;;;;;;;15.68;11.80;;;;;;;24.11;69.00;99761.40;1721088;83;21069;-63
2023/07/31 09:11:17;;;;;;;14.83;10.50;;;;;;;24.08;68.42;99762.01;1695004;83;21073;-65
2023/07/31 09:13:46;;;;;;;14.95;11.00;;;;;;;24.00;68.16;99762.66;1750707;82;21036;-65
2023/07/31 09:16:15;;;;;;;15.15;11.03;;;;;;;23.94;68.47;99762.47;1751539;82;21119;-63
2023/07/31 09:18:56;;;;;;;14.47;11.15;;;;;;;23.93;68.33;99760.80;1751263;82;21103;-64
2023/07/31 09:21:27;;;;;;;17.15;10.60;;;;;;;23.93;68.49;99753.80;1751460;82;21031;-64
2023/07/31 09:26:42;;;;;;;16.20;10.60;;;;;;;23.92;68.05;99757.17;1751329;82;21063;-65
2023/07/31 09:29:19;;;;;;;12.47;9.65;;;;;;;23.90;68.10;99755.23;1751560;82;21463;-64
2023/07/31 09:31:59;;;;;;;12.58;9.58;;;;;;;23.91;67.41;99752.70;1751431;82;21532;-65
2023/07/31 09:34:39;;;;;;;12.55;9.65;;;;;;;23.91;67.30;99757.47;1751472;82;21066;-65
2023/07/31 09:37:08;;;;;;;16.97;9.55;;;;;;;23.90;66.93;99760.84;1733015;83;21035;-63
2023/07/31 09:39:47;;;;;;;12.47;9.15;;;;;;;23.85;67.06;99760.91;1721539;82;21454;-65
2023/07/31 09:42:26;;;;;;;13.93;9.40;;;;;;;23.86;67.20;99761.74;1702972;84;21050;-63
2023/07/31 09:44:55;;;;;;;12.45;9.50;;;;;;;23.88;66.99;99763.67;1702903;84;21532;-64
2023/07/31 09:47:26;;;;;;;16.97;10.50;;;;;;;23.84;66.56;99766.80;1657501;84;21066;-63
2023/07/31 09:49:55;;;;;;;12.78;9.83;;;;;;;23.84;66.67;99769.61;1703260;84;21065;-62
2023/07/31 09:52:27;;;;;;;14.47;9.58;;;;;;;23.87;66.39;99764.80;1703023;84;21046;-64
2023/07/31 09:54:55;;;;;;;11.88;9.58;;;;;;;23.90;66.19;99753.84;1679673;84;21082;-62
2023/07/31 09:57:25;;;;;;;11.63;9.30;;;;;;;23.96;66.18;99749.83;1679383;84;21093;-64
2023/07/31 09:59:55;;;;;;;12.20;9.10;;;;;;;24.01;65.54;99751.16;1703118;84;21555;-62
2023/07/31 10:02:24;;;;;;;11.57;9.65;;;;;;;24.03;65.20;99740.49;1703106;84;21044;-66
2023/07/31 10:04:52;;;;;;;15.58;9.23;;;;;;;24.12;65.02;99740.67;1720493;83;21042;-67
2023/07/31 10:07:21;;;;;;;11.57;8.33;;;;;;;24.22;64.92;99736.31;1751670;82;21076;-64
2023/07/31 10:09:50;;;;;;;12.33;9.43;;;;;;;24.30;63.62;99737.62;1751615;82;21511;-64
2023/07/31 10:12:19;;;;;;;13.58;9.98;;;;;;;24.34;62.89;99745.67;1751588;82;21039;-64
2023/07/31 10:14:49;;;;;;;12.98;9.80;;;;;;;24.37;63.09;99744.23;1751508;82;21456;-65
2023/07/31 10:17:17;;;;;;;12.47;10.00;;;;;;;24.41;62.72;99746.69;1751682;82;21032;-64
2023/07/31 10:19:46;;;;;;;17.77;11.70;;;;;;;24.41;62.50;99749.48;1715724;83;21006;-63
2023/07/31 10:22:18;;;;;;;12.25;10.05;;;;;;;24.45;62.99;99740.73;1751719;80;21023;-64
2023/07/31 10:24:47;;;;;;;16.07;11.10;;;;;;;24.53;62.95;99740.04;1751605;82;21169;-64
2023/07/31 10:27:16;;;;;;;12.47;10.80;;;;;;;24.60;62.75;99736.28;1751679;82;21067;-64
2023/07/31 10:29:47;;;;;;;15.23;11.15;;;;;;;24.64;62.93;99730.32;1751609;81;21075;-64
2023/07/31 10:32:17;;;;;;;16.52;11.38;;;;;;;24.71;63.08;99732.19;1751802;82;21031;-64
2023/07/31 10:34:47;;;;;;;30.95;12.68;;;;;;;24.81;63.17;99722.19;1751757;82;21663;-62
2023/07/31 10:37:28;;;;;;;14.75;11.43;;;;;;;24.86;63.24;99726.30;1688044;82;21030;-63
2023/07/31 10:40:09;;;;;;;14.58;9.83;;;;;;;24.91;63.34;99726.77;1782891;80;20988;-63
2023/07/31 10:42:48;;;;;;;12.63;9.20;;;;;;;24.95;63.04;99732.85;1782508;80;21090;-62
2023/07/31 10:45:37;;;;;;;12.63;9.05;;;;;;;24.97;61.92;99731.14;1782496;79;21024;-63
2023/07/31 10:48:18;;;;;;;11.10;9.25;;;;;;;24.96;61.26;99728.08;1782694;80;21008;-63
2023/07/31 10:50:57;;;;;;;14.38;9.30;;;;;;;25.01;61.08;99740.63;1782536;80;21585;-63
2023/07/31 10:53:29;;;;;;;11.10;8.80;;;;;;;25.10;60.47;99739.34;1782709;80;21107;-63
2023/07/31 10:56:04;;;;;;;12.05;8.70;;;;;;;25.19;60.02;99734.67;1782495;80;20992;-61
2023/07/31 10:58:33;;;;;;;14.18;8.55;;;;;;;25.27;59.35;99734.78;1782507;80;21462;-63
2023/07/31 11:01:03;;;;;;;11.35;9.30;;;;;;;25.34;59.00;99740.54;1782104;79;21047;-64
2023/07/31 11:03:51;;;;;;;11.70;8.63;;;;;;;25.39;58.64;99735.69;1714404;84;21020;-63
2023/07/31 11:06:20;;;;;;;11.75;9.05;;;;;;;25.45;58.54;99737.81;1776267;80;21047;-67
2023/07/31 11:08:51;;;;;;;10.75;8.53;;;;;;;25.46;58.02;99736.10;1706467;84;21475;-63
2023/07/31 11:11:21;;;;;;;15.13;12.33;;;;;;;25.43;58.07;99731.12;1772796;81;21036;-63
2023/07/31 11:13:54;;;;;;;11.83;9.35;;;;;;;25.41;58.01;99732.00;1772691;81;21075;-64
2023/07/31 11:16:24;;;;;;;10.60;8.30;;;;;;;25.40;57.89;99738.75;1772665;81;21020;-64
2023/07/31 11:18:53;;;;;;;10.63;8.15;;;;;;;25.42;57.93;99742.08;1706388;84;21024;-64
2023/07/31 11:21:24;;;;;;;10.55;8.38;;;;;;;25.49;57.98;99739.69;1772863;81;21000;-66
2023/07/31 11:23:56;;;;;;;15.40;9.58;;;;;;;25.56;56.69;99732.25;1772660;81;21016;-64
2023/07/31 11:26:27;;;;;;;11.85;8.40;;;;;;;25.49;56.37;99724.25;1772620;81;21011;-63
2023/07/31 11:28:56;;;;;;;12.65;9.08;;;;;;;25.38;56.89;99717.77;1706657;84;21084;-64
2023/07/31 11:31:25;;;;;;;10.93;8.93;;;;;;;25.33;56.93;99713.64;1772464;80;21521;-62
2023/07/31 11:34:06;;;;;;;14.07;9.33;;;;;;;25.31;57.02;99712.55;1706468;84;21035;-62
2023/07/31 11:36:34;;;;;;;11.22;8.50;;;;;;;25.29;57.12;99711.45;1772672;80;21048;-62
2023/07/31 11:39:10;;;;;;;12.30;8.60;;;;;;;25.32;57.36;99715.61;1687776;84;21049;-63
2023/07/31 11:41:42;;;;;;;14.58;7.97;;;;;;;25.38;57.58;99712.98;1759184;80;21078;-62
2023/07/31 11:44:11;;;;;;;13.65;9.13;;;;;;;25.44;57.15;99699.12;1710403;84;21045;-64